createdAt,value
2018-05-08T00:00:19.497Z,936.63
2018-05-08T00:01:19.457Z,936.63
2018-05-08T00:02:19.427Z,936.59
2018-05-08T00:03:19.368Z,936.57
2018-05-08T00:04:19.338Z,936.58
2018-05-08T00:05:19.273Z,936.57
2018-05-08T00:06:19.259Z,936.60
2018-05-08T00:07:19.220Z,936.55
2018-05-08T00:08:19.155Z,936.56
2018-05-08T00:09:19.123Z,936.55
2018-05-08T00:10:19.077Z,936.59
2018-05-08T00:11:19.045Z,936.56
2018-05-08T00:12:18.962Z,936.56
2018-05-08T00:13:18.943Z,936.52
2018-05-08T00:14:18.909Z,936.51
2018-05-08T00:15:18.849Z,936.50
2018-05-08T00:16:18.781Z,936.54
2018-05-08T00:17:18.746Z,936.51
2018-05-08T00:18:18.704Z,936.50
2018-05-08T00:19:18.663Z,936.54
2018-05-08T00:20:18.626Z,936.53
2018-05-08T00:21:18.558Z,936.58
2018-05-08T00:22:18.531Z,936.58
2018-05-08T00:23:18.490Z,936.60
2018-05-08T00:24:18.464Z,936.63
2018-05-08T00:25:18.398Z,936.56
2018-05-08T00:26:18.353Z,936.60
2018-05-08T00:27:18.297Z,936.59
2018-05-08T00:28:18.261Z,936.59
2018-05-08T00:29:18.212Z,936.63
2018-05-08T00:30:18.171Z,936.65
2018-05-08T00:31:18.119Z,936.68
2018-05-08T00:32:18.101Z,936.73
2018-05-08T00:33:18.035Z,936.70
2018-05-08T00:34:17.993Z,936.78
2018-05-08T00:35:17.957Z,936.74
2018-05-08T00:36:17.877Z,936.79
2018-05-08T00:37:17.877Z,936.77
2018-05-08T00:38:17.823Z,936.80
2018-05-08T00:39:17.760Z,936.74
2018-05-08T00:40:17.707Z,936.77
2018-05-08T00:41:17.668Z,936.77
2018-05-08T00:42:17.620Z,936.77
2018-05-08T00:43:17.593Z,936.70
2018-05-08T00:44:17.534Z,936.76
2018-05-08T00:45:17.485Z,936.72
2018-05-08T00:46:17.471Z,936.75
2018-05-08T00:47:17.415Z,936.74
2018-05-08T00:48:17.380Z,936.73
2018-05-08T00:49:17.328Z,936.74
2018-05-08T00:50:17.275Z,936.73
2018-05-08T00:51:17.246Z,936.74
2018-05-08T00:52:17.200Z,936.78
2018-05-08T00:53:17.122Z,936.76
2018-05-08T00:54:17.065Z,936.74
2018-05-08T00:55:17.049Z,936.72
2018-05-08T00:56:16.976Z,936.78
2018-05-08T00:57:16.931Z,936.79
2018-05-08T00:58:16.892Z,936.77
2018-05-08T00:59:16.894Z,936.79
2018-05-08T01:00:16.809Z,936.78
2018-05-08T01:01:16.750Z,936.76
2018-05-08T01:02:16.733Z,936.79
2018-05-08T01:03:16.690Z,936.76
2018-05-08T01:04:16.646Z,936.78
2018-05-08T01:05:16.619Z,936.74
2018-05-08T01:06:16.555Z,936.76
2018-05-08T01:07:16.479Z,936.74
2018-05-08T01:08:16.443Z,936.75
2018-05-08T01:09:16.941Z,936.79
2018-05-08T01:10:16.374Z,936.80
2018-05-08T01:11:16.343Z,936.75
2018-05-08T01:12:16.304Z,936.78
2018-05-08T01:13:16.215Z,936.81
2018-05-08T01:14:16.208Z,936.80
2018-05-08T01:15:16.124Z,936.77
2018-05-08T01:16:16.112Z,936.75
2018-05-08T01:17:16.030Z,936.71
2018-05-08T01:18:16.014Z,936.74
2018-05-08T01:19:15.983Z,936.75
2018-05-08T01:20:15.941Z,936.75
2018-05-08T01:21:15.877Z,936.78
2018-05-08T01:22:15.833Z,936.74
2018-05-08T01:23:15.793Z,936.78
2018-05-08T01:24:15.752Z,936.77
2018-05-08T01:25:15.694Z,936.77
2018-05-08T01:26:15.649Z,936.75
2018-05-08T01:27:15.584Z,936.76
2018-05-08T01:28:15.548Z,936.72
2018-05-08T01:29:15.507Z,936.73
2018-05-08T01:30:15.445Z,936.69
2018-05-08T01:31:15.429Z,936.69
2018-05-08T01:32:15.372Z,936.75
2018-05-08T01:33:15.339Z,936.71
2018-05-08T01:34:15.269Z,936.69
2018-05-08T01:35:15.238Z,936.61
2018-05-08T01:36:15.200Z,936.68
2018-05-08T01:37:15.171Z,936.68
2018-05-08T01:38:15.083Z,936.66
2018-05-08T01:39:15.043Z,936.70
2018-05-08T01:40:15.009Z,936.73
2018-05-08T01:41:14.976Z,936.72
2018-05-08T01:42:14.929Z,936.76
2018-05-08T01:43:14.929Z,936.71
2018-05-08T01:44:14.830Z,936.68
2018-05-08T01:45:14.809Z,936.75
2018-05-08T01:46:14.744Z,936.73
2018-05-08T01:47:14.702Z,936.77
2018-05-08T01:48:14.645Z,936.76
2018-05-08T01:49:14.618Z,936.75
2018-05-08T01:50:14.594Z,936.73
2018-05-08T01:51:14.550Z,936.73
2018-05-08T01:52:14.452Z,936.74
2018-05-08T01:53:14.419Z,936.73
2018-05-08T01:54:14.374Z,936.75
2018-05-08T01:55:14.347Z,936.74
2018-05-08T01:56:14.295Z,936.77
2018-05-08T01:57:14.245Z,936.77
2018-05-08T01:58:14.191Z,936.76
2018-05-08T01:59:14.165Z,936.71
2018-05-08T02:00:14.106Z,936.71
2018-05-08T02:01:14.046Z,936.73
2018-05-08T02:02:14.034Z,936.77
2018-05-08T02:03:13.963Z,936.76
2018-05-08T02:04:13.912Z,936.74
2018-05-08T02:05:13.877Z,936.79
2018-05-08T02:06:13.825Z,936.79
2018-05-08T02:07:13.797Z,936.80
2018-05-08T02:08:13.758Z,936.76
2018-05-08T02:09:13.696Z,936.81
2018-05-08T02:10:13.655Z,936.75
2018-05-08T02:11:13.632Z,936.74
2018-05-08T02:12:13.564Z,936.74
2018-05-08T02:13:13.531Z,936.77
2018-05-08T02:14:13.474Z,936.75
2018-05-08T02:15:13.426Z,936.78
2018-05-08T02:16:13.409Z,936.76
2018-05-08T02:17:13.354Z,936.73
2018-05-08T02:18:13.326Z,936.74
2018-05-08T02:19:13.249Z,936.75
2018-05-08T02:20:13.217Z,936.73
2018-05-08T02:21:13.148Z,936.77
2018-05-08T02:22:13.114Z,936.77
2018-05-08T02:23:13.068Z,936.80
2018-05-08T02:24:13.020Z,936.80
2018-05-08T02:25:12.991Z,936.85
2018-05-08T02:26:12.951Z,936.79
2018-05-08T02:27:12.869Z,936.81
2018-05-08T02:28:12.855Z,936.84
2018-05-08T02:29:12.804Z,936.80
2018-05-08T02:30:12.753Z,936.78
2018-05-08T02:31:12.715Z,936.72
2018-05-08T02:32:12.673Z,936.74
2018-05-08T02:33:12.619Z,936.74
2018-05-08T02:34:12.564Z,936.71
2018-05-08T02:35:12.554Z,936.67
2018-05-08T02:36:12.481Z,936.65
2018-05-08T02:37:12.442Z,936.61
2018-05-08T02:38:12.404Z,936.60
2018-05-08T02:39:12.348Z,936.63
2018-05-08T02:40:12.291Z,936.55
2018-05-08T02:41:12.249Z,936.56
2018-05-08T02:42:12.216Z,936.57
2018-05-08T02:43:12.182Z,936.52
2018-05-08T02:44:12.128Z,936.52
2018-05-08T02:45:12.071Z,936.53
2018-05-08T02:46:12.068Z,936.54
2018-05-08T02:47:12.011Z,936.54
2018-05-08T02:48:11.925Z,936.54
2018-05-08T02:49:11.891Z,936.52
2018-05-08T02:50:11.881Z,936.51
2018-05-08T02:51:11.792Z,936.52
2018-05-08T02:52:11.767Z,936.53
2018-05-08T02:53:11.713Z,936.47
2018-05-08T02:54:11.686Z,936.38
2018-05-08T02:55:11.648Z,936.43
2018-05-08T02:56:11.590Z,936.44
2018-05-08T02:57:11.545Z,936.44
2018-05-08T02:58:11.487Z,936.40
2018-05-08T02:59:11.464Z,936.37
2018-05-08T03:00:11.385Z,936.37
2018-05-08T03:01:11.341Z,936.36
2018-05-08T03:02:11.316Z,936.33
2018-05-08T03:03:11.261Z,936.42
2018-05-08T03:04:11.227Z,936.41
2018-05-08T03:05:11.189Z,936.43
2018-05-08T03:06:11.124Z,936.37
2018-05-08T03:07:11.082Z,936.37
2018-05-08T03:08:11.055Z,936.40
2018-05-08T03:09:11.017Z,936.42
2018-05-08T03:10:10.931Z,936.43
2018-05-08T03:11:10.923Z,936.41
2018-05-08T03:12:10.844Z,936.39
2018-05-08T03:13:10.820Z,936.42
2018-05-08T03:14:10.779Z,936.36
2018-05-08T03:15:10.723Z,936.38
2018-05-08T03:16:10.677Z,936.36
2018-05-08T03:17:10.622Z,936.29
2018-05-08T03:18:10.589Z,936.32
2018-05-08T03:19:10.526Z,936.26
2018-05-08T03:20:10.517Z,936.27
2018-05-08T03:21:10.433Z,936.25
2018-05-08T03:22:10.420Z,936.21
2018-05-08T03:23:10.374Z,936.14
2018-05-08T03:24:10.317Z,936.14
2018-05-08T03:25:10.303Z,936.16
2018-05-08T03:26:10.225Z,936.13
2018-05-08T03:27:10.167Z,936.14
2018-05-08T03:28:10.133Z,936.13
2018-05-08T03:29:10.100Z,936.18
2018-05-08T03:30:10.042Z,936.16
2018-05-08T03:31:10.033Z,936.11
2018-05-08T03:32:09.969Z,936.12
2018-05-08T03:33:09.908Z,936.06
2018-05-08T03:34:09.855Z,936.07
2018-05-08T03:35:09.840Z,936.06
2018-05-08T03:36:09.776Z,936.02
2018-05-08T03:37:09.744Z,936.10
2018-05-08T03:38:09.686Z,936.03
2018-05-08T03:39:09.652Z,936.04
2018-05-08T03:40:09.619Z,936.03
2018-05-08T03:41:09.564Z,936.00
2018-05-08T03:42:09.502Z,936.02
2018-05-08T03:43:09.488Z,935.99
2018-05-08T03:44:09.448Z,936.02
2018-05-08T03:45:09.371Z,936.01
2018-05-08T03:46:09.328Z,936.02
2018-05-08T03:47:09.264Z,936.03
2018-05-08T03:48:09.243Z,936.04
2018-05-08T03:49:09.190Z,936.04
2018-05-08T03:50:09.134Z,935.99
2018-05-08T03:51:09.085Z,935.98
2018-05-08T03:52:09.039Z,936.03
2018-05-08T03:53:09.002Z,936.04
2018-05-08T03:54:08.980Z,936.02
2018-05-08T03:55:08.918Z,936.03
2018-05-08T03:56:08.882Z,936.04
2018-05-08T03:57:08.838Z,936.00
2018-05-08T03:58:08.805Z,936.02
2018-05-08T03:59:08.736Z,935.99
2018-05-08T04:00:08.722Z,935.97
2018-05-08T04:01:08.677Z,935.97
2018-05-08T04:02:08.591Z,935.98
2018-05-08T04:03:08.576Z,935.93
2018-05-08T04:04:08.540Z,935.92
2018-05-08T04:05:08.484Z,935.86
2018-05-08T04:06:08.420Z,935.85
2018-05-08T04:07:08.397Z,935.86
2018-05-08T04:08:08.351Z,935.89
2018-05-08T04:09:08.297Z,935.87
2018-05-08T04:10:08.232Z,935.83
2018-05-08T04:11:08.201Z,935.87
2018-05-08T04:12:08.156Z,935.86
2018-05-08T04:13:08.125Z,935.83
2018-05-08T04:14:08.068Z,935.81
2018-05-08T04:15:08.068Z,935.81
2018-05-08T04:16:07.970Z,935.81
2018-05-08T04:17:07.944Z,935.77
2018-05-08T04:18:07.897Z,935.76
2018-05-08T04:19:07.876Z,935.74
2018-05-08T04:20:07.822Z,935.74
2018-05-08T04:21:07.853Z,935.72
2018-05-08T04:22:07.723Z,935.70
2018-05-08T04:23:07.663Z,935.67
2018-05-08T04:24:07.640Z,935.67
2018-05-08T04:25:07.571Z,935.63
2018-05-08T04:26:07.519Z,935.63
2018-05-08T04:27:07.495Z,935.65
2018-05-08T04:28:07.463Z,935.68
2018-05-08T04:29:07.416Z,935.66
2018-05-08T04:30:07.364Z,935.71
2018-05-08T04:31:07.327Z,935.73
2018-05-08T04:32:07.255Z,935.69
2018-05-08T04:33:07.206Z,935.67
2018-05-08T04:34:07.178Z,935.61
2018-05-08T04:35:07.127Z,935.60
2018-05-08T04:36:07.060Z,935.55
2018-05-08T04:37:07.040Z,935.53
2018-05-08T04:38:06.984Z,935.52
2018-05-08T04:39:06.949Z,935.48
2018-05-08T04:40:06.898Z,935.50
2018-05-08T04:41:06.875Z,935.52
2018-05-08T04:42:06.788Z,935.55
2018-05-08T04:43:06.769Z,935.56
2018-05-08T04:44:06.724Z,935.59
2018-05-08T04:45:06.668Z,935.56
2018-05-08T04:46:06.605Z,935.56
2018-05-08T04:47:06.590Z,935.56
2018-05-08T04:48:06.542Z,935.56
2018-05-08T04:49:06.473Z,935.56
2018-05-08T04:50:06.455Z,935.58
2018-05-08T04:51:06.422Z,935.56
2018-05-08T04:52:06.444Z,935.56
2018-05-08T04:53:06.310Z,935.54
2018-05-08T04:54:06.262Z,935.57
2018-05-08T04:55:06.228Z,935.54
2018-05-08T04:56:06.170Z,935.54
2018-05-08T04:57:06.117Z,935.55
2018-05-08T04:58:06.081Z,935.54
2018-05-08T04:59:06.036Z,935.54
2018-05-08T05:00:05.975Z,935.54
2018-05-08T05:01:05.935Z,935.53
2018-05-08T05:02:05.911Z,935.60
2018-05-08T05:03:05.854Z,935.58
2018-05-08T05:04:05.811Z,935.58
2018-05-08T05:05:05.855Z,935.56
2018-05-08T05:06:05.732Z,935.56
2018-05-08T05:07:05.690Z,935.54
2018-05-08T05:08:05.626Z,935.56
2018-05-08T05:09:05.578Z,935.52
2018-05-08T05:10:05.524Z,935.51
2018-05-08T05:11:05.597Z,935.52
2018-05-08T05:12:05.460Z,935.50
2018-05-08T05:13:05.388Z,935.46
2018-05-08T05:14:05.376Z,935.47
2018-05-08T05:15:05.343Z,935.46
2018-05-08T05:16:05.268Z,935.42
2018-05-08T05:17:05.221Z,935.40
2018-05-08T05:18:05.189Z,935.42
2018-05-08T05:19:05.138Z,935.45
2018-05-08T05:20:05.086Z,935.42
2018-05-08T05:21:05.041Z,935.42
2018-05-08T05:22:05.003Z,935.43
2018-05-08T05:23:04.970Z,935.45
2018-05-08T05:24:04.891Z,935.44
2018-05-08T05:25:04.873Z,935.44
2018-05-08T05:26:04.835Z,935.44
2018-05-08T05:27:04.775Z,935.46
2018-05-08T05:28:04.729Z,935.45
2018-05-08T05:29:04.684Z,935.42
2018-05-08T05:30:04.642Z,935.41
2018-05-08T05:31:04.577Z,935.42
2018-05-08T05:32:04.554Z,935.39
2018-05-08T05:33:04.513Z,935.36
2018-05-08T05:34:04.453Z,935.43
2018-05-08T05:35:04.423Z,935.45
2018-05-08T05:36:04.357Z,935.44
2018-05-08T05:37:04.307Z,935.46
2018-05-08T05:38:04.273Z,935.42
2018-05-08T05:39:04.219Z,935.38
2018-05-08T05:40:04.212Z,935.36
2018-05-08T05:41:04.148Z,935.37
2018-05-08T05:42:04.104Z,935.35
2018-05-08T05:43:04.054Z,935.35
2018-05-08T05:44:03.999Z,935.35
2018-05-08T05:45:03.963Z,935.33
2018-05-08T05:46:03.908Z,935.34
2018-05-08T05:47:03.887Z,935.34
2018-05-08T05:48:03.819Z,935.29
2018-05-08T05:49:03.784Z,935.29
2018-05-08T05:50:03.718Z,935.31
2018-05-08T05:51:03.700Z,935.32
2018-05-08T05:52:03.643Z,935.30
2018-05-08T05:53:03.621Z,935.30
2018-05-08T05:54:03.539Z,935.29
2018-05-08T05:55:03.502Z,935.32
2018-05-08T05:56:03.461Z,935.32
2018-05-08T05:57:03.442Z,935.30
2018-05-08T05:58:03.397Z,935.27
2018-05-08T05:59:03.312Z,935.26
2018-05-08T06:00:03.375Z,935.26
2018-05-08T06:01:03.236Z,935.28
2018-05-08T06:02:03.192Z,935.29
2018-05-08T06:03:03.171Z,935.29
2018-05-08T06:04:03.099Z,935.26
2018-05-08T06:05:03.054Z,935.24
2018-05-08T06:06:03.001Z,935.24
2018-05-08T06:07:02.960Z,935.21
2018-05-08T06:08:02.942Z,935.20
2018-05-08T06:09:02.879Z,935.20
2018-05-08T06:10:02.834Z,935.19
2018-05-08T06:11:02.783Z,935.17
2018-05-08T06:12:02.862Z,935.21
2018-05-08T06:13:02.692Z,935.21
2018-05-08T06:14:02.647Z,935.22
2018-05-08T06:15:02.614Z,935.19
2018-05-08T06:16:02.550Z,935.21
2018-05-08T06:17:02.504Z,935.17
2018-05-08T06:18:02.491Z,935.16
2018-05-08T06:19:02.419Z,935.18
2018-05-08T06:20:02.373Z,935.18
2018-05-08T06:21:02.313Z,935.17
2018-05-08T06:22:02.296Z,935.16
2018-05-08T06:23:02.241Z,935.11
2018-05-08T06:24:02.193Z,935.10
2018-05-08T06:25:02.164Z,935.12
2018-05-08T06:26:02.111Z,935.08
2018-05-08T06:27:02.061Z,935.08
2018-05-08T06:28:02.027Z,935.09
2018-05-08T06:29:01.978Z,935.13
2018-05-08T06:30:01.935Z,935.10
2018-05-08T06:31:01.884Z,935.13
2018-05-08T06:32:01.831Z,935.11
2018-05-08T06:33:01.819Z,935.10
2018-05-08T06:34:01.723Z,935.08
2018-05-08T06:35:01.699Z,935.08
2018-05-08T06:36:01.635Z,935.08
2018-05-08T06:37:01.605Z,935.04
2018-05-08T06:38:01.568Z,935.05
2018-05-08T06:39:01.522Z,935.09
2018-05-08T06:40:01.523Z,935.04
2018-05-08T06:41:01.432Z,935.05
2018-05-08T06:42:01.378Z,935.01
2018-05-08T06:43:01.346Z,935.02
2018-05-08T06:44:01.306Z,935.03
2018-05-08T06:45:01.230Z,935.03
2018-05-08T06:46:01.181Z,934.99
2018-05-08T06:47:01.161Z,935.05
2018-05-08T06:48:01.112Z,935.03
2018-05-08T06:49:01.050Z,935.06
2018-05-08T06:50:00.999Z,935.01
2018-05-08T06:51:00.971Z,935.01
2018-05-08T06:52:00.941Z,935.00
2018-05-08T06:53:00.899Z,934.97
2018-05-08T06:54:00.850Z,934.94
2018-05-08T06:55:00.872Z,934.91
2018-05-08T06:56:00.743Z,934.93
2018-05-08T06:57:00.721Z,934.89
2018-05-08T06:58:00.653Z,934.91
2018-05-08T06:59:00.635Z,934.95
2018-05-08T07:00:00.561Z,934.88
2018-05-08T07:01:00.505Z,934.87
2018-05-08T07:02:00.475Z,934.86
2018-05-08T07:03:00.414Z,934.89
2018-05-08T07:04:00.392Z,934.88
2018-05-08T07:05:00.364Z,934.83
2018-05-08T07:06:00.296Z,934.88
2018-05-08T07:07:00.231Z,934.88
2018-05-08T07:08:00.200Z,934.91
2018-05-08T07:09:00.149Z,934.98
2018-05-08T07:10:00.103Z,934.96
2018-05-08T07:11:00.162Z,934.94
2018-05-08T07:12:00.016Z,934.94
2018-05-08T07:12:59.973Z,934.88
2018-05-08T07:13:59.939Z,934.92
2018-05-08T07:14:59.912Z,934.93
2018-05-08T07:16:00.105Z,934.94
2018-05-08T07:16:59.805Z,934.96
2018-05-08T07:17:59.747Z,934.95
2018-05-08T07:18:59.725Z,934.97
2018-05-08T07:19:59.654Z,935.01
2018-05-08T07:20:59.624Z,935.02
2018-05-08T07:21:59.572Z,934.98
2018-05-08T07:22:59.542Z,934.98
2018-05-08T07:23:59.464Z,935.05
2018-05-08T07:24:59.436Z,935.01
2018-05-08T07:25:59.396Z,935.05
2018-05-08T07:26:59.363Z,935.07
2018-05-08T07:27:59.276Z,935.07
2018-05-08T07:28:59.259Z,935.09
2018-05-08T07:29:59.302Z,935.05
2018-05-08T07:30:59.214Z,935.02
2018-05-08T07:31:59.124Z,935.06
2018-05-08T07:32:59.068Z,935.05
2018-05-08T07:33:59.013Z,935.09
2018-05-08T07:34:58.988Z,935.07
2018-05-08T07:35:58.917Z,935.08
2018-05-08T07:36:58.891Z,935.08
2018-05-08T07:37:58.820Z,935.06
2018-05-08T07:38:58.793Z,935.07
2018-05-08T07:39:58.737Z,935.05
2018-05-08T07:40:58.716Z,935.03
2018-05-08T07:41:58.667Z,935.08
2018-05-08T07:42:58.599Z,935.05
2018-05-08T07:43:58.592Z,935.03
2018-05-08T07:44:58.519Z,935.06
2018-05-08T07:45:58.488Z,935.09
2018-05-08T07:46:58.467Z,935.11
2018-05-08T07:47:58.392Z,935.14
2018-05-08T07:48:58.357Z,935.09
2018-05-08T07:49:58.305Z,935.11
2018-05-08T07:50:58.244Z,935.13
2018-05-08T07:51:58.211Z,935.18
2018-05-08T07:52:58.157Z,935.16
2018-05-08T07:53:58.111Z,935.17
2018-05-08T07:54:58.090Z,935.20
2018-05-08T07:55:58.035Z,935.20
2018-05-08T07:56:58.127Z,935.18
2018-05-08T07:57:57.926Z,935.16
2018-05-08T07:58:57.882Z,935.20
2018-05-08T07:59:57.847Z,935.21
2018-05-08T08:00:57.832Z,935.25
2018-05-08T08:01:57.737Z,935.21
2018-05-08T08:02:57.705Z,935.24
2018-05-08T08:03:57.682Z,935.23
2018-05-08T08:04:57.601Z,935.18
2018-05-08T08:05:57.579Z,935.17
2018-05-08T08:06:57.506Z,935.17
2018-05-08T08:07:57.482Z,935.22
2018-05-08T08:08:57.421Z,935.19
2018-05-08T08:09:57.380Z,935.21
2018-05-08T08:10:57.336Z,935.19
2018-05-08T08:11:57.322Z,935.22
2018-05-08T08:12:57.269Z,935.16
2018-05-08T08:13:57.743Z,935.16
2018-05-08T08:14:57.176Z,935.18
2018-05-08T08:15:57.104Z,935.15
2018-05-08T08:16:57.062Z,935.14
2018-05-08T08:17:57.027Z,935.12
2018-05-08T08:18:56.983Z,935.14
2018-05-08T08:19:56.952Z,935.16
2018-05-08T08:20:56.872Z,935.16
2018-05-08T08:21:56.842Z,935.15
2018-05-08T08:22:56.814Z,935.14
2018-05-08T08:23:56.744Z,935.15
2018-05-08T08:24:56.696Z,935.11
2018-05-08T08:25:56.650Z,935.12
2018-05-08T08:26:56.608Z,935.12
2018-05-08T08:27:56.557Z,935.09
2018-05-08T08:28:56.514Z,935.10
2018-05-08T08:29:56.469Z,935.19
2018-05-08T08:30:56.417Z,935.21
2018-05-08T08:31:56.397Z,935.20
2018-05-08T08:32:56.345Z,935.20
2018-05-08T08:33:56.305Z,935.22
2018-05-08T08:34:56.228Z,935.20
2018-05-08T08:35:56.197Z,935.19
2018-05-08T08:36:56.170Z,935.20
2018-05-08T08:37:56.085Z,935.24
2018-05-08T08:38:56.062Z,935.25
2018-05-08T08:39:56.009Z,935.26
2018-05-08T08:40:56.089Z,935.25
2018-05-08T08:41:55.961Z,935.23
2018-05-08T08:42:55.880Z,935.24
2018-05-08T08:43:55.843Z,935.27
2018-05-08T08:44:55.796Z,935.29
2018-05-08T08:45:55.772Z,935.28
2018-05-08T08:46:55.705Z,935.28
2018-05-08T08:47:55.719Z,935.30
2018-05-08T08:48:55.602Z,935.31
2018-05-08T08:49:55.553Z,935.35
2018-05-08T08:50:55.524Z,935.35
2018-05-08T08:51:55.498Z,935.38
2018-05-08T08:52:55.444Z,935.41
2018-05-08T08:53:55.389Z,935.39
2018-05-08T08:54:55.329Z,935.35
2018-05-08T08:55:55.336Z,935.41
2018-05-08T08:56:55.238Z,935.40
2018-05-08T08:57:55.179Z,935.43
2018-05-08T08:58:55.135Z,935.46
2018-05-08T08:59:55.118Z,935.48
2018-05-08T09:00:55.058Z,935.49
2018-05-08T09:01:55.021Z,935.44
2018-05-08T09:02:54.981Z,935.45
2018-05-08T09:03:54.992Z,935.47
2018-05-08T09:04:54.873Z,935.45
2018-05-08T09:05:54.838Z,935.42
2018-05-08T09:06:54.803Z,935.43
2018-05-08T09:07:54.748Z,935.41
2018-05-08T09:08:54.706Z,935.41
2018-05-08T09:09:54.633Z,935.45
2018-05-08T09:10:54.603Z,935.45
2018-05-08T09:11:54.569Z,935.44
2018-05-08T09:12:54.529Z,935.41
2018-05-08T09:13:54.483Z,935.42
2018-05-08T09:14:54.440Z,935.37
2018-05-08T09:15:54.405Z,935.42
2018-05-08T09:16:54.341Z,935.44
2018-05-08T09:17:54.292Z,935.46
2018-05-08T09:18:54.250Z,935.47
2018-05-08T09:19:54.206Z,935.53
2018-05-08T09:20:54.133Z,935.55
2018-05-08T09:21:54.121Z,935.56
2018-05-08T09:22:54.084Z,935.60
2018-05-08T09:23:54.033Z,935.63
2018-05-08T09:24:53.991Z,935.60
2018-05-08T09:25:53.908Z,935.65
2018-05-08T09:26:53.874Z,935.64
2018-05-08T09:27:53.828Z,935.70
2018-05-08T09:28:53.779Z,935.70
2018-05-08T09:29:53.770Z,935.71
2018-05-08T09:30:53.686Z,935.71
2018-05-08T09:31:53.643Z,935.72
2018-05-08T09:32:53.595Z,935.80
2018-05-08T09:33:53.584Z,935.80
2018-05-08T09:34:53.516Z,935.81
2018-05-08T09:35:53.467Z,935.80
2018-05-08T09:36:53.421Z,935.85
2018-05-08T09:37:53.371Z,935.81
2018-05-08T09:38:53.313Z,935.80
2018-05-08T09:39:53.310Z,935.80
2018-05-08T09:40:53.328Z,935.79
2018-05-08T09:41:53.191Z,935.76
2018-05-08T09:42:53.173Z,935.73
2018-05-08T09:43:53.108Z,935.80
2018-05-08T09:44:53.068Z,935.78
2018-05-08T09:45:53.016Z,935.84
2018-05-08T09:46:52.948Z,935.81
2018-05-08T09:47:52.928Z,935.82
2018-05-08T09:48:52.962Z,935.79
2018-05-08T09:49:52.860Z,935.80
2018-05-08T09:50:52.786Z,935.81
2018-05-08T09:51:52.747Z,935.79
2018-05-08T09:52:52.708Z,935.75
2018-05-08T09:53:52.678Z,935.76
2018-05-08T09:54:52.597Z,935.73
2018-05-08T09:55:52.555Z,935.75
2018-05-08T09:56:52.522Z,935.73
2018-05-08T09:57:52.457Z,935.78
2018-05-08T09:58:52.450Z,935.78
2018-05-08T09:59:52.374Z,935.72
2018-05-08T10:00:52.312Z,935.78
2018-05-08T10:01:52.284Z,935.80
2018-05-08T10:02:52.249Z,935.73
2018-05-08T10:03:52.213Z,935.73
2018-05-08T10:04:52.130Z,935.68
2018-05-08T10:05:52.110Z,935.72
2018-05-08T10:06:52.087Z,935.74
2018-05-08T10:07:52.012Z,935.70
2018-05-08T10:08:51.993Z,935.74
2018-05-08T10:09:51.918Z,935.73
2018-05-08T10:10:51.871Z,935.68
2018-05-08T10:11:51.819Z,935.71
2018-05-08T10:12:51.800Z,935.60
2018-05-08T10:13:51.759Z,935.67
2018-05-08T10:14:51.732Z,935.65
2018-05-08T10:15:51.646Z,935.67
2018-05-08T10:16:51.612Z,935.68
2018-05-08T10:17:51.564Z,935.70
2018-05-08T10:18:51.521Z,935.75
2018-05-08T10:19:51.459Z,935.74
2018-05-08T10:20:51.437Z,935.79
2018-05-08T10:21:51.380Z,935.79
2018-05-08T10:22:51.327Z,935.90
2018-05-08T10:23:51.302Z,935.86
2018-05-08T10:24:51.254Z,935.86
2018-05-08T10:25:51.201Z,935.95
2018-05-08T10:26:51.283Z,935.91
2018-05-08T10:27:51.125Z,935.96
2018-05-08T10:28:51.061Z,936.03
2018-05-08T10:29:51.016Z,936.03
2018-05-08T10:30:50.985Z,936.16
2018-05-08T10:31:50.938Z,936.03
2018-05-08T10:32:50.976Z,936.04
2018-05-08T10:33:50.868Z,936.03
2018-05-08T10:34:50.800Z,935.91
2018-05-08T10:35:50.760Z,935.99
2018-05-08T10:36:50.689Z,935.97
2018-05-08T10:37:50.670Z,935.95
2018-05-08T10:38:50.600Z,935.99
2018-05-08T10:39:50.579Z,936.01
2018-05-08T10:40:50.542Z,936.01
2018-05-08T10:41:50.475Z,936.03
2018-05-08T10:42:50.518Z,936.03
2018-05-08T10:43:50.368Z,936.08
2018-05-08T10:44:50.344Z,936.04
2018-05-08T10:45:50.281Z,936.05
2018-05-08T10:46:50.265Z,936.08
2018-05-08T10:47:50.224Z,936.09
2018-05-08T10:48:50.149Z,936.10
2018-05-08T10:49:50.118Z,936.08
2018-05-08T10:50:50.084Z,936.08
2018-05-08T10:51:50.078Z,936.07
2018-05-08T10:52:49.987Z,936.04
2018-05-08T10:53:49.964Z,936.10
2018-05-08T10:54:50.445Z,936.06
2018-05-08T10:55:49.882Z,936.05
2018-05-08T10:56:49.788Z,935.99
2018-05-08T10:57:49.759Z,936.05
2018-05-08T10:58:49.713Z,936.03
2018-05-08T10:59:49.696Z,936.08
2018-05-08T11:00:49.623Z,936.09
2018-05-08T11:01:49.600Z,936.16
2018-05-08T11:02:49.527Z,936.26
2018-05-08T11:03:49.489Z,936.22
2018-05-08T11:04:49.441Z,936.33
2018-05-08T11:05:49.409Z,936.32
2018-05-08T11:06:49.347Z,936.32
2018-05-08T11:07:49.301Z,936.35
2018-05-08T11:08:49.276Z,936.41
2018-05-08T11:09:49.236Z,936.33
2018-05-08T11:10:49.178Z,936.31
2018-05-08T11:11:49.143Z,936.33
2018-05-08T11:12:49.080Z,936.34
2018-05-08T11:13:49.039Z,936.40
2018-05-08T11:14:49.005Z,936.47
2018-05-08T11:15:48.960Z,936.44
2018-05-08T11:16:48.904Z,936.45
2018-05-08T11:17:48.873Z,936.49
2018-05-08T11:18:48.840Z,936.47
2018-05-08T11:19:48.805Z,936.44
2018-05-08T11:20:48.740Z,936.43
2018-05-08T11:21:48.694Z,936.45
2018-05-08T11:22:48.647Z,936.40
2018-05-08T11:23:48.597Z,936.36
2018-05-08T11:24:48.531Z,936.40
2018-05-08T11:25:48.519Z,936.41
2018-05-08T11:26:48.469Z,936.38
2018-05-08T11:27:48.404Z,936.31
2018-05-08T11:28:48.359Z,936.35
2018-05-08T11:29:48.357Z,936.29
2018-05-08T11:30:48.308Z,936.34
2018-05-08T11:31:48.240Z,936.34
2018-05-08T11:32:48.215Z,936.33
2018-05-08T11:33:48.150Z,936.36
2018-05-08T11:34:48.110Z,936.33
2018-05-08T11:35:48.041Z,936.38
2018-05-08T11:36:48.013Z,936.43
2018-05-08T11:37:47.948Z,936.44
2018-05-08T11:38:47.921Z,936.46
2018-05-08T11:39:47.864Z,936.47
2018-05-08T11:40:47.827Z,936.46
2018-05-08T11:41:47.847Z,936.48
2018-05-08T11:42:47.748Z,936.46
2018-05-08T11:43:47.707Z,936.50
2018-05-08T11:44:47.705Z,936.57
2018-05-08T11:45:47.619Z,936.51
2018-05-08T11:46:47.564Z,936.54
2018-05-08T11:47:47.513Z,936.51
2018-05-08T11:48:47.469Z,936.53
2018-05-08T11:49:47.443Z,936.58
2018-05-08T11:50:47.412Z,936.58
2018-05-08T11:51:47.847Z,936.64
2018-05-08T11:52:47.308Z,936.57
2018-05-08T11:53:47.270Z,936.59
2018-05-08T11:54:47.206Z,936.60
2018-05-08T11:55:47.157Z,936.62
2018-05-08T11:56:47.129Z,936.60
2018-05-08T11:57:47.072Z,936.60
2018-05-08T11:58:47.029Z,936.67
2018-05-08T11:59:46.995Z,936.71
2018-05-08T12:00:46.971Z,936.71
2018-05-08T12:01:46.907Z,936.70
2018-05-08T12:02:46.862Z,936.65
2018-05-08T12:03:46.814Z,936.68
2018-05-08T12:04:46.752Z,936.70
2018-05-08T12:05:46.718Z,936.67
2018-05-08T12:06:46.678Z,936.70
2018-05-08T12:07:46.652Z,936.68
2018-05-08T12:08:46.581Z,936.70
2018-05-08T12:09:46.543Z,936.66
2018-05-08T12:10:46.533Z,936.66
2018-05-08T12:11:46.447Z,936.64
2018-05-08T12:12:46.411Z,936.63
2018-05-08T12:13:46.358Z,936.62
2018-05-08T12:14:46.407Z,936.64
2018-05-08T12:15:46.299Z,936.64
2018-05-08T12:16:46.224Z,936.71
2018-05-08T12:17:46.165Z,936.76
2018-05-08T12:18:46.156Z,936.80
2018-05-08T12:19:46.093Z,936.73
2018-05-08T12:20:46.033Z,936.82
2018-05-08T12:21:46.042Z,936.84
2018-05-08T12:22:45.939Z,936.80
2018-05-08T12:23:45.924Z,936.78
2018-05-08T12:24:45.855Z,936.84
2018-05-08T12:25:45.837Z,936.95
2018-05-08T12:26:45.810Z,936.94
2018-05-08T12:27:45.730Z,936.98